Ana Sayfa
METAR-TAF:

METAR-TAF

Havaalanları :

Retalhuleu, Guatemala

Enlem: 14-32N, Boylam: 091-40W, yükseklik: 239 m

Güncel hava durumu gözlemi

Rapor saat 13:00 UTC de 6 dakika önce yapıldı.
Sakin rüzgar
Sıcaklık 26°C
Nem 79%
Basınç 1015 hPa
Görüş mesafesi: 6000 m
20000 ft yükseklikte parçalı çok bulutlu
Toz Pusu,

METAR: MGRT 291300Z 00000KT 6000 BKN200 26/22 Q1015 A2997 HZ VOL. STA MARIA Y SANTIAGUITO EN ACTIVIDAD

Saat: 07:06 (13:06 UTC)


TAF: eksik

4.000'den fazla havaalanı için hava durumu gözlemleri ve tahminleri (METAR ve TAF raporları).

Kullanılabilir istasyonlar harita üzerinde sarı ve kırmızı noktalarla gösterilir.

İstasyonun adını görmek için fareyi noktanın üzerinde gezdirin.

Sonrasında hava gözlem ve tahminlerini görmek için tıklayın.

Haritayı değiştirmek için: yaklaştırmak için siyah artı işaretli yeşil düğmeye ve uzaklaştırmak için de eksi işaretli düğmeye hızla tıklayın; bitişik haritalar için yeşil okları kullanın.


METAR-TAF: